Shrivenham, United Kingdom
Current Conditions -  °F | °C
As of 12:58 AM on Thursday 18 Dec 2014 (Local Time) from EGVA Reporting Station
Overcast Overcast  
Wind Chill: 53°   Ceiling: 800
Heat Index: 53°   Visibility: 6mi
Dew Point: 52°   Wind: 23mph
Humidity: 97%   Direction: 250°WSW
Pressure: 29.77"   Gusts: 28mph
Location:  51.6°N, 1.65°W
Report Text: EGVA 180058Z AUTO 25020G24KT 9999 OVC008 12/11 A2977 RMK AO2 SLP085 T01180113
Loading
Personal Weather Stations






























Interactive Weather Map New forecast layout! Learn more

10-Day Weather Forecast

Advertisements
Track Severe Weather on mobile